Glen Arbor, Michigan
Current Conditions -  °F | °C
As of 3:15 PM on Wednesday 28 Jan 2015 (Local Time) from KFKS Reporting Station
Overcast Overcast  
Wind Chill: 23°   Ceiling: 2100
Heat Index: 31°   Visibility: 10mi
Dew Point: 23°   Wind: 8mph
Humidity: 72%   Direction: 180°S
Pressure: 30.14"   Gusts: NA
Location:  44.9°N, 85.99°W
Report Text: KFKS 282015Z AUTO 18007KT 10SM OVC021 M01/M05 A3014 RMK AO2 T10071052
Loading
Personal Weather Stations






























Interactive Weather Map New forecast layout! Learn more

10-Day Weather Forecast

Advertisements
Track Severe Weather on mobile